Time;durP1;ratioP1;P1;durP2;ratioP2;P2;SDS_P1;SDS_P2;PMS_P1;PMS_P2;Temp;Humidity;BMP_temperature;BMP_pressure;BME280_temperature;BME280_humidity;BME280_pressure;Samples;Min_cycle;Max_cycle;Signal;HPM_P1;HPM_P2
2021/08/07 00:01:00;;;;;;;8.90;3.42;;;24.60;96.20;;;;;;5024142;28;20029;-65
2021/08/07 00:03:25;;;;;;;8.70;3.10;;;24.40;95.90;;;;;;5010116;28;20093;-65
2021/08/07 00:05:51;;;;;;;7.60;3.72;;;24.50;96.50;;;;;;5000374;28;20971;-65
2021/08/07 00:08:17;;;;;;;10.90;3.92;;;24.40;96.30;;;;;;4999704;28;20041;-65
2021/08/07 00:10:43;;;;;;;10.43;3.72;;;24.40;96.90;;;;;;4991155;28;20451;-66
2021/08/07 00:13:08;;;;;;;5.72;3.33;;;24.30;96.30;;;;;;4997786;28;20037;-66
2021/08/07 00:15:34;;;;;;;6.85;3.42;;;24.40;96.80;;;;;;5000862;28;20030;-66
2021/08/07 00:18:00;;;;;;;10.32;3.30;;;24.40;96.40;;;;;;5012339;28;20077;-66
2021/08/07 00:20:26;;;;;;;13.02;3.70;;;24.50;96.60;;;;;;5012504;28;20038;-66
2021/08/07 00:22:51;;;;;;;8.18;3.70;;;24.50;97.10;;;;;;5002899;28;20052;-65
2021/08/07 00:25:17;;;;;;;11.50;3.50;;;24.40;97.00;;;;;;4990556;28;20033;-65
2021/08/07 00:27:43;;;;;;;6.13;2.78;;;24.30;97.20;;;;;;5001670;28;20190;-67
2021/08/07 00:30:10;;;;;;;10.07;3.35;;;24.40;97.20;;;;;;4996715;28;20478;-66
2021/08/07 00:32:36;;;;;;;9.18;3.30;;;24.30;97.70;;;;;;5015098;28;20099;-66
2021/08/07 00:35:02;;;;;;;9.48;3.13;;;24.20;97.60;;;;;;5011106;28;20088;-66
2021/08/07 00:37:28;;;;;;;8.48;3.65;;;24.20;98.00;;;;;;4998582;28;20523;-65
2021/08/07 00:39:54;;;;;;;5.05;2.85;;;24.30;98.00;;;;;;4991435;28;20081;-65
2021/08/07 00:42:19;;;;;;;9.60;3.88;;;24.20;97.90;;;;;;5017310;28;20080;-65
2021/08/07 00:44:45;;;;;;;9.50;3.33;;;24.20;97.50;;;;;;4994966;28;20187;-65
2021/08/07 00:47:10;;;;;;;5.70;3.35;;;24.30;97.70;;;;;;5015194;28;20756;-65
2021/08/07 00:49:36;;;;;;;6.75;3.70;;;24.20;97.50;;;;;;5012652;28;20051;-65
2021/08/07 00:52:02;;;;;;;8.15;3.38;;;24.20;97.70;;;;;;5014790;28;20034;-65
2021/08/07 00:54:28;;;;;;;6.80;2.92;;;24.30;97.90;;;;;;4994525;28;20544;-66
2021/08/07 00:56:54;;;;;;;8.50;3.45;;;24.40;97.90;;;;;;4991816;28;20045;-65
2021/08/07 00:59:19;;;;;;;11.13;3.40;;;24.30;97.80;;;;;;5001031;28;20742;-65
2021/08/07 01:01:52;;;;;;;11.52;3.60;;;24.20;98.40;;;;;;5016846;28;20072;-66
2021/08/07 01:04:26;;;;;;;6.50;3.30;;;24.10;99.10;;;;;;5012379;28;20585;-66
2021/08/07 01:07:05;;;;;;;8.18;3.30;;;24.20;98.80;;;;;;5003342;28;20042;-65
2021/08/07 01:09:48;;;;;;;9.65;3.33;;;24.30;99.10;;;;;;5003213;28;20442;-66
2021/08/07 01:12:36;;;;;;;9.35;3.50;;;24.20;99.00;;;;;;5010179;28;20154;-65
2021/08/07 01:15:03;;;;;;;6.53;3.20;;;24.30;99.20;;;;;;4963036;28;20137;-66
2021/08/07 01:17:30;;;;;;;7.00;3.13;;;24.20;98.60;;;;;;5012664;28;20154;-65
2021/08/07 01:20:04;;;;;;;8.18;3.42;;;24.30;98.60;;;;;;4997191;28;20152;-66
2021/08/07 01:22:45;;;;;;;5.53;3.40;;;24.20;99.90;;;;;;5010349;28;20053;-65
2021/08/07 01:25:15;;;;;;;8.13;3.33;;;24.20;98.20;;;;;;5011321;28;20328;-66
2021/08/07 01:27:42;;;;;;;6.13;3.25;;;24.20;99.90;;;;;;5015101;28;20041;-65
2021/08/07 01:30:10;;;;;;;9.85;3.42;;;24.10;98.40;;;;;;5019352;28;20463;-65
2021/08/07 01:32:38;;;;;;;7.97;3.55;;;24.10;98.70;;;;;;5012081;28;20042;-65
2021/08/07 01:35:07;;;;;;;7.43;3.20;;;24.20;99.60;;;;;;5021084;28;20506;-65
2021/08/07 01:37:33;;;;;;;6.75;3.10;;;24.20;99.30;;;;;;5014867;28;20156;-65
2021/08/07 01:39:58;;;;;;;9.05;3.63;;;24.10;99.10;;;;;;5018860;28;20099;-65
2021/08/07 01:42:25;;;;;;;7.47;3.42;;;24.10;99.40;;;;;;5012869;28;20046;-65
2021/08/07 01:44:51;;;;;;;7.85;3.15;;;24.10;99.70;;;;;;5017181;28;20087;-65
2021/08/07 01:47:20;;;;;;;6.68;3.22;;;24.10;99.70;;;;;;4999994;28;20075;-65
2021/08/07 01:49:58;;;;;;;8.68;3.60;;;24.10;99.70;;;;;;5023280;28;20049;-65
2021/08/07 01:52:28;;;;;;;8.48;3.50;;;24.10;99.90;;;;;;4970946;28;20050;-65
2021/08/07 01:54:59;;;;;;;5.75;3.13;;;24.10;99.90;;;;;;5007091;28;20049;-65
2021/08/07 01:57:27;;;;;;;9.20;3.38;;;24.10;99.90;;;;;;5011934;28;20082;-65
2021/08/07 01:59:55;;;;;;;7.55;2.88;;;24.20;99.90;;;;;;5020073;28;20079;-65
2021/08/07 02:02:21;;;;;;;9.30;3.42;;;24.20;99.90;;;;;;5011799;28;20049;-65
2021/08/07 02:04:47;;;;;;;7.75;3.17;;;24.10;99.90;;;;;;5019834;28;20076;-65
2021/08/07 02:07:14;;;;;;;5.68;2.90;;;24.20;99.90;;;;;;5014454;28;20499;-65
2021/08/07 02:09:42;;;;;;;6.50;2.90;;;24.20;99.90;;;;;;5018089;28;20083;-66
2021/08/07 02:12:08;;;;;;;5.22;2.67;;;24.10;99.90;;;;;;5010617;28;20048;-65
2021/08/07 02:14:36;;;;;;;5.47;3.17;;;24.10;99.90;;;;;;5016579;28;20041;-65
2021/08/07 02:17:03;;;;;;;8.15;3.28;;;24.20;99.90;;;;;;5012508;28;20537;-66
2021/08/07 02:19:30;;;;;;;6.85;3.10;;;24.10;99.90;;;;;;5009126;28;20070;-65
2021/08/07 02:21:57;;;;;;;9.60;3.70;;;24.10;99.90;;;;;;5012719;28;20131;-65
2021/08/07 02:24:26;;;;;;;8.70;3.65;;;24.20;99.90;;;;;;5012025;28;20128;-64
2021/08/07 02:26:54;;;;;;;6.60;3.47;;;24.10;99.90;;;;;;5022011;28;20038;-65
2021/08/07 02:29:20;;;;;;;6.93;2.92;;;24.20;99.90;;;;;;5016006;28;20037;-65
2021/08/07 02:31:47;;;;;;;7.43;3.05;;;24.20;99.90;;;;;;5006309;28;20091;-64
2021/08/07 02:34:13;;;;;;;6.85;3.47;;;24.20;99.90;;;;;;5012444;28;20065;-64
2021/08/07 02:36:41;;;;;;;7.45;3.65;;;24.20;99.90;;;;;;5014457;28;20041;-64
2021/08/07 02:39:07;;;;;;;6.65;3.28;;;24.30;99.90;;;;;;5010788;28;20127;-65
2021/08/07 02:41:33;;;;;;;8.18;3.22;;;24.20;99.90;;;;;;5021013;28;20506;-63
2021/08/07 02:44:00;;;;;;;7.82;2.90;;;24.00;99.90;;;;;;5011825;28;20037;-64
2021/08/07 02:46:27;;;;;;;8.27;3.28;;;24.10;99.90;;;;;;5012559;28;21690;-64
2021/08/07 02:48:54;;;;;;;6.18;3.05;;;24.10;99.90;;;;;;5011813;28;20033;-65
2021/08/07 02:51:20;;;;;;;8.80;3.50;;;24.10;99.90;;;;;;5017424;28;20045;-64
2021/08/07 02:53:47;;;;;;;6.75;3.50;;;24.00;99.90;;;;;;5008016;28;21340;-65
2021/08/07 02:56:13;;;;;;;8.20;3.20;;;24.00;99.90;;;;;;5002436;28;20042;-66
2021/08/07 02:58:39;;;;;;;10.70;3.50;;;23.90;99.90;;;;;;5000030;28;20033;-66
2021/08/07 03:01:05;;;;;;;8.00;3.15;;;23.80;99.90;;;;;;4998608;28;20081;-66
2021/08/07 03:03:30;;;;;;;10.13;3.28;;;23.90;99.90;;;;;;5021236;28;20049;-66
2021/08/07 03:05:56;;;;;;;7.32;3.25;;;23.90;99.90;;;;;;5012577;28;20041;-64
2021/08/07 03:08:21;;;;;;;7.97;3.45;;;23.90;99.90;;;;;;5016657;28;20057;-64
2021/08/07 03:10:47;;;;;;;8.70;3.35;;;23.90;99.90;;;;;;5011927;28;20049;-62
2021/08/07 03:13:13;;;;;;;8.07;3.15;;;23.80;99.90;;;;;;5014848;28;20116;-65
2021/08/07 03:15:38;;;;;;;8.95;3.25;;;23.90;99.90;;;;;;5011677;28;20081;-65
2021/08/07 03:18:04;;;;;;;9.93;3.75;;;23.80;99.90;;;;;;5008949;28;20646;-66
2021/08/07 03:20:32;;;;;;;7.13;2.95;;;23.90;99.90;;;;;;5011185;28;20084;-65
2021/08/07 03:23:07;;;;;;;6.15;2.92;;;23.90;99.90;;;;;;5014823;28;20052;-66
2021/08/07 03:25:34;;;;;;;5.82;2.70;;;24.00;99.90;;;;;;4993829;28;20042;-64
2021/08/07 03:28:01;;;;;;;6.57;3.30;;;24.00;99.90;;;;;;5016650;28;20053;-65
2021/08/07 03:30:28;;;;;;;6.95;3.33;;;23.90;99.90;;;;;;5009532;28;20123;-64
2021/08/07 03:32:54;;;;;;;9.60;3.85;;;23.80;99.90;;;;;;5020191;28;20037;-64
2021/08/07 03:35:20;;;;;;;6.50;3.63;;;23.70;99.90;;;;;;5012742;28;20506;-64
2021/08/07 03:37:46;;;;;;;6.15;2.95;;;23.80;99.90;;;;;;5018964;28;20096;-64
2021/08/07 03:40:13;;;;;;;5.13;3.03;;;23.80;99.90;;;;;;5013755;28;20056;-64
2021/08/07 03:42:40;;;;;;;9.88;2.95;;;23.80;99.90;;;;;;5013616;28;20079;-64
2021/08/07 03:45:07;;;;;;;6.00;2.97;;;23.80;99.90;;;;;;5012914;28;20093;-64
2021/08/07 03:47:46;;;;;;;5.75;3.40;;;23.80;99.90;;;;;;5012188;28;20050;-64
2021/08/07 03:50:12;;;;;;;9.35;3.70;;;23.70;99.90;;;;;;5012779;28;20391;-64
2021/08/07 03:52:37;;;;;;;5.10;2.92;;;23.70;99.90;;;;;;4993808;28;20051;-64
2021/08/07 03:55:03;;;;;;;7.93;3.80;;;23.80;99.90;;;;;;5018861;28;20103;-64
2021/08/07 03:57:29;;;;;;;7.57;3.28;;;23.80;99.90;;;;;;5013788;28;20041;-64
2021/08/07 03:59:54;;;;;;;4.95;2.97;;;23.70;99.90;;;;;;5016954;28;20226;-64
2021/08/07 04:02:20;;;;;;;8.82;3.50;;;23.70;99.90;;;;;;5013598;28;20083;-64
2021/08/07 04:04:45;;;;;;;7.63;3.33;;;23.60;99.90;;;;;;5011986;28;20053;-65
2021/08/07 04:07:42;;;;;;;7.35;3.20;;;23.50;99.90;;;;;;4990539;28;20125;-64
2021/08/07 04:10:08;;;;;;;7.38;3.08;;;23.50;99.90;;;;;;4976868;28;20793;-65
2021/08/07 04:12:35;;;;;;;9.05;3.30;;;23.60;99.90;;;;;;4999579;28;20158;-64
2021/08/07 04:15:00;;;;;;;7.72;3.20;;;23.50;99.90;;;;;;5008753;28;20559;-64
2021/08/07 04:17:26;;;;;;;7.82;3.20;;;23.50;99.90;;;;;;5015949;28;20128;-64
2021/08/07 04:19:52;;;;;;;7.05;3.30;;;23.60;99.90;;;;;;5017503;28;20077;-64
2021/08/07 04:22:18;;;;;;;9.07;3.25;;;23.60;99.90;;;;;;5016195;28;20764;-63
2021/08/07 04:24:43;;;;;;;6.18;2.80;;;23.50;99.90;;;;;;5018476;28;20054;-64
2021/08/07 04:27:09;;;;;;;8.27;3.22;;;23.50;99.90;;;;;;5013599;28;20498;-65
2021/08/07 04:29:35;;;;;;;5.30;2.75;;;23.50;99.90;;;;;;5018148;28;20037;-64
2021/08/07 04:32:00;;;;;;;7.38;3.33;;;23.50;99.90;;;;;;5016940;28;20038;-64
2021/08/07 04:34:26;;;;;;;10.57;3.53;;;23.50;99.90;;;;;;5014780;28;20037;-64
2021/08/07 04:36:52;;;;;;;9.60;3.40;;;23.50;99.90;;;;;;5024767;28;20125;-64
2021/08/07 04:39:17;;;;;;;9.00;3.05;;;23.50;99.90;;;;;;5010069;28;20340;-61
2021/08/07 04:41:43;;;;;;;7.45;3.45;;;23.50;99.90;;;;;;5018845;28;20438;-64
2021/08/07 04:44:09;;;;;;;5.32;3.15;;;23.60;99.90;;;;;;5006132;28;20116;-65
2021/08/07 04:46:35;;;;;;;8.20;3.10;;;23.60;99.90;;;;;;5004418;28;21116;-64
2021/08/07 04:49:01;;;;;;;11.88;3.65;;;23.60;99.90;;;;;;5015896;28;20562;-65
2021/08/07 04:51:27;;;;;;;6.00;3.00;;;23.60;99.90;;;;;;5003816;28;20888;-64
2021/08/07 04:53:53;;;;;;;7.93;3.17;;;23.50;99.90;;;;;;5012412;28;20077;-64
2021/08/07 04:56:18;;;;;;;3.75;3.00;;;23.60;99.90;;;;;;5017035;28;20069;-64
2021/08/07 04:58:44;;;;;;;5.68;2.78;;;23.60;99.90;;;;;;5020039;28;20384;-65
2021/08/07 05:01:10;;;;;;;6.22;3.13;;;23.50;99.90;;;;;;5019639;28;20053;-64
2021/08/07 05:03:36;;;;;;;7.47;3.63;;;23.50;99.90;;;;;;5015787;28;20041;-65
2021/08/07 05:06:01;;;;;;;5.80;3.10;;;23.50;99.90;;;;;;5015046;28;20041;-65
2021/08/07 05:08:28;;;;;;;9.77;3.38;;;23.50;99.90;;;;;;5015337;28;20041;-65
2021/08/07 05:10:55;;;;;;;6.78;3.10;;;23.60;99.90;;;;;;5016287;28;20116;-65
2021/08/07 05:13:20;;;;;;;7.75;3.22;;;23.50;99.90;;;;;;5021237;28;20397;-64
2021/08/07 05:15:46;;;;;;;6.35;2.95;;;23.50;99.90;;;;;;5014992;28;20071;-65
2021/08/07 05:18:12;;;;;;;10.30;3.20;;;23.50;99.90;;;;;;5020281;28;20565;-65
2021/08/07 05:20:37;;;;;;;11.45;3.08;;;23.50;99.90;;;;;;5016040;28;20071;-65
2021/08/07 05:23:03;;;;;;;7.18;3.83;;;23.50;99.90;;;;;;5019015;28;20698;-65
2021/08/07 05:25:28;;;;;;;6.25;3.40;;;23.50;99.90;;;;;;5008393;28;20042;-64
2021/08/07 05:27:54;;;;;;;7.93;3.65;;;23.50;99.90;;;;;;5009288;28;20506;-65
2021/08/07 05:30:20;;;;;;;8.80;3.30;;;23.50;99.90;;;;;;5016544;28;20033;-64
2021/08/07 05:32:45;;;;;;;8.20;3.20;;;23.50;99.90;;;;;;5005495;28;20049;-65
2021/08/07 05:35:11;;;;;;;7.60;3.30;;;23.60;99.90;;;;;;5007591;28;20046;-65
2021/08/07 05:37:39;;;;;;;9.63;3.33;;;23.70;99.90;;;;;;5003027;28;20046;-65
2021/08/07 05:40:05;;;;;;;8.13;3.40;;;23.80;99.90;;;;;;5004659;28;20127;-65
2021/08/07 05:42:31;;;;;;;8.00;3.40;;;24.00;99.90;;;;;;5004571;28;20409;-65
2021/08/07 05:44:56;;;;;;;7.85;2.75;;;24.00;99.90;;;;;;5011675;28;20030;-65
2021/08/07 05:47:22;;;;;;;7.03;2.95;;;24.00;99.90;;;;;;5005578;28;20042;-64
2021/08/07 05:49:47;;;;;;;7.28;3.08;;;24.00;99.90;;;;;;5016162;28;20046;-61
2021/08/07 05:52:13;;;;;;;5.15;2.70;;;24.00;99.90;;;;;;5010166;28;20116;-65
2021/08/07 05:54:38;;;;;;;9.30;3.40;;;24.00;99.90;;;;;;5014158;28;20045;-65
2021/08/07 05:57:04;;;;;;;4.78;3.03;;;24.10;99.90;;;;;;5006304;28;20052;-65
2021/08/07 05:59:29;;;;;;;8.45;3.22;;;24.20;99.90;;;;;;5014321;28;20068;-64
2021/08/07 06:01:55;;;;;;;6.63;2.55;;;24.20;99.90;;;;;;4993802;28;20038;-64
2021/08/07 06:04:21;;;;;;;5.47;2.63;;;24.20;99.90;;;;;;5003744;28;20483;-64
2021/08/07 06:06:46;;;;;;;8.25;3.38;;;24.30;99.90;;;;;;5007935;28;20125;-65
2021/08/07 06:09:12;;;;;;;13.35;3.45;;;24.30;99.90;;;;;;5015810;28;20041;-66
2021/08/07 06:11:37;;;;;;;7.57;3.08;;;24.30;99.90;;;;;;4996034;28;20041;-65
2021/08/07 06:14:03;;;;;;;5.90;2.70;;;24.10;99.90;;;;;;5005986;28;20041;-65
2021/08/07 06:16:29;;;;;;;4.10;2.75;;;24.30;99.90;;;;;;4995229;28;20052;-66
2021/08/07 06:18:54;;;;;;;7.85;3.80;;;24.40;99.90;;;;;;5018328;28;20046;-65
2021/08/07 06:21:20;;;;;;;6.50;3.33;;;24.50;99.90;;;;;;5008673;28;20428;-65
2021/08/07 06:23:46;;;;;;;5.47;2.88;;;24.60;99.90;;;;;;4997043;28;20061;-65
2021/08/07 06:26:13;;;;;;;6.35;2.75;;;24.60;99.90;;;;;;5015756;28;20037;-65
2021/08/07 06:28:39;;;;;;;6.97;3.03;;;24.70;99.90;;;;;;5004262;28;20037;-65
2021/08/07 06:31:06;;;;;;;6.85;3.63;;;24.50;99.90;;;;;;5009635;28;20037;-63
2021/08/07 06:33:31;;;;;;;4.38;2.67;;;24.50;99.90;;;;;;5010584;28;20088;-65
2021/08/07 06:36:00;;;;;;;8.35;3.70;;;24.60;99.90;;;;;;5025120;28;20041;-65
2021/08/07 06:38:26;;;;;;;10.25;3.28;;;24.40;99.90;;;;;;5014873;28;20488;-65
2021/08/07 06:40:51;;;;;;;4.15;2.60;;;24.50;99.90;;;;;;5006817;28;20037;-65
2021/08/07 06:43:18;;;;;;;7.75;3.28;;;24.40;99.90;;;;;;5004425;28;20069;-65
2021/08/07 06:45:44;;;;;;;7.80;2.75;;;24.60;99.90;;;;;;4994944;28;20037;-65
2021/08/07 06:48:09;;;;;;;7.55;3.35;;;24.40;99.90;;;;;;5009330;28;20041;-66
2021/08/07 06:50:35;;;;;;;9.18;3.33;;;24.40;99.90;;;;;;5021109;28;20042;-65
2021/08/07 06:53:01;;;;;;;7.20;3.45;;;24.50;99.90;;;;;;5010693;28;20040;-64
2021/08/07 06:55:26;;;;;;;6.47;3.13;;;24.50;99.90;;;;;;5015213;28;20084;-65
2021/08/07 06:57:52;;;;;;;8.00;3.22;;;24.40;99.90;;;;;;5018023;28;20068;-64
2021/08/07 07:00:18;;;;;;;8.52;3.63;;;24.60;99.90;;;;;;5016100;28;20091;-60
2021/08/07 07:02:43;;;;;;;5.32;2.92;;;24.60;99.90;;;;;;5017030;28;20041;-64
2021/08/07 07:05:09;;;;;;;9.88;3.92;;;24.60;99.90;;;;;;5014351;28;20091;-64
2021/08/07 07:07:39;;;;;;;7.18;3.40;;;24.80;99.90;;;;;;5019402;28;20041;-66
2021/08/07 07:10:07;;;;;;;7.82;2.83;;;24.80;99.90;;;;;;5025024;28;20049;-65
2021/08/07 07:12:33;;;;;;;6.43;3.65;;;24.80;99.90;;;;;;5018865;28;20069;-65
2021/08/07 07:14:58;;;;;;;6.82;3.00;;;24.70;99.90;;;;;;5021430;28;20439;-64
2021/08/07 07:17:25;;;;;;;7.57;3.90;;;24.80;99.90;;;;;;5015817;28;20037;-64
2021/08/07 07:19:51;;;;;;;5.47;3.47;;;24.80;99.90;;;;;;5004776;28;20046;-64
2021/08/07 07:22:16;;;;;;;8.73;3.60;;;24.90;99.90;;;;;;5016788;28;20083;-64
2021/08/07 07:24:42;;;;;;;7.22;3.53;;;25.00;99.90;;;;;;5002976;28;20034;-67
2021/08/07 07:27:07;;;;;;;10.68;3.47;;;25.00;99.90;;;;;;5013583;28;20662;-67
2021/08/07 07:29:33;;;;;;;5.20;3.15;;;25.00;99.90;;;;;;5009986;28;20034;-64
2021/08/07 07:31:59;;;;;;;6.43;3.00;;;25.10;99.90;;;;;;5022352;28;20083;-64
2021/08/07 07:34:25;;;;;;;6.65;3.40;;;25.20;99.90;;;;;;5022562;28;20064;-65
2021/08/07 07:36:50;;;;;;;8.30;3.35;;;25.20;99.90;;;;;;5025021;28;20041;-64
2021/08/07 07:39:16;;;;;;;10.05;3.42;;;25.20;99.90;;;;;;5027632;28;20041;-65
2021/08/07 07:41:42;;;;;;;5.65;3.05;;;25.10;99.90;;;;;;5002527;28;20598;-65
2021/08/07 07:44:07;;;;;;;7.63;3.08;;;25.10;99.90;;;;;;5018108;28;20120;-65
2021/08/07 07:46:33;;;;;;;5.65;3.20;;;25.30;99.90;;;;;;5021193;28;20099;-65
2021/08/07 07:48:58;;;;;;;6.38;3.25;;;25.40;99.90;;;;;;5027406;28;20068;-65
2021/08/07 07:51:24;;;;;;;5.30;2.90;;;25.40;99.90;;;;;;4999622;28;20048;-65
2021/08/07 07:53:50;;;;;;;6.55;3.03;;;25.40;99.90;;;;;;5008274;28;20084;-66
2021/08/07 07:56:15;;;;;;;11.13;3.78;;;25.50;99.90;;;;;;4998975;28;20049;-67
2021/08/07 07:58:42;;;;;;;5.40;3.65;;;25.60;99.90;;;;;;5005504;28;20109;-67
2021/08/07 08:01:07;;;;;;;5.75;3.10;;;25.70;99.90;;;;;;5013798;28;20480;-67
2021/08/07 08:03:33;;;;;;;7.22;3.25;;;25.70;99.90;;;;;;5008564;28;20132;-66
2021/08/07 08:05:58;;;;;;;8.85;4.25;;;25.80;99.90;;;;;;5009889;28;20056;-67
2021/08/07 08:08:24;;;;;;;6.28;3.17;;;25.70;99.90;;;;;;5025757;28;20095;-66
2021/08/07 08:10:50;;;;;;;10.60;3.55;;;25.80;99.90;;;;;;5002700;28;20029;-64
2021/08/07 08:13:15;;;;;;;4.47;3.47;;;26.00;99.90;;;;;;5009081;28;20041;-66
2021/08/07 08:15:41;;;;;;;9.15;4.00;;;26.10;99.90;;;;;;5005136;28;20071;-66
2021/08/07 08:18:08;;;;;;;6.50;3.58;;;26.10;99.00;;;;;;5016734;28;20084;-67
2021/08/07 08:20:34;;;;;;;6.50;3.80;;;26.10;98.90;;;;;;5021769;28;20056;-66
2021/08/07 08:23:00;;;;;;;10.05;3.75;;;26.20;99.20;;;;;;5005870;28;20045;-66
2021/08/07 08:25:25;;;;;;;10.43;3.22;;;26.30;99.10;;;;;;5008049;28;20030;-66
2021/08/07 08:27:51;;;;;;;7.38;3.13;;;26.30;98.90;;;;;;5021241;28;20406;-66
2021/08/07 08:30:17;;;;;;;8.13;3.53;;;26.40;98.80;;;;;;5013675;28;20057;-66
2021/08/07 08:32:43;;;;;;;7.65;3.58;;;26.40;99.80;;;;;;5011479;28;20091;-67
2021/08/07 08:35:10;;;;;;;8.45;4.55;;;26.30;99.10;;;;;;5018145;28;20041;-67
2021/08/07 08:37:35;;;;;;;9.13;4.03;;;26.20;98.80;;;;;;4989743;28;20033;-67
2021/08/07 08:40:01;;;;;;;9.15;3.92;;;26.10;98.80;;;;;;5006985;28;20038;-67
2021/08/07 08:42:27;;;;;;;10.95;3.60;;;26.10;98.40;;;;;;4998661;28;20050;-66
2021/08/07 08:44:52;;;;;;;8.15;3.53;;;26.20;98.50;;;;;;5016693;28;20038;-67
2021/08/07 08:47:20;;;;;;;8.80;4.05;;;26.30;98.30;;;;;;5023397;28;20037;-68
2021/08/07 08:49:46;;;;;;;7.45;3.28;;;26.40;97.80;;;;;;5017033;28;20042;-67
2021/08/07 08:52:14;;;;;;;6.05;3.53;;;26.50;97.80;;;;;;5011739;28;20129;-67
2021/08/07 08:54:41;;;;;;;9.27;4.18;;;26.60;96.90;;;;;;5008682;28;20042;-67
2021/08/07 08:57:07;;;;;;;8.52;4.57;;;26.60;97.00;;;;;;5004746;28;20038;-67
2021/08/07 08:59:33;;;;;;;7.80;4.63;;;26.60;96.30;;;;;;5004078;28;20173;-67
2021/08/07 09:01:59;;;;;;;6.68;4.00;;;26.60;96.40;;;;;;5023053;28;20110;-67
2021/08/07 09:04:26;;;;;;;10.07;4.68;;;26.70;96.60;;;;;;5016644;28;20403;-66
2021/08/07 09:06:52;;;;;;;6.88;3.83;;;26.70;96.10;;;;;;5009025;28;20062;-66
2021/08/07 09:09:17;;;;;;;11.57;4.38;;;26.70;96.60;;;;;;5003752;28;20029;-67
2021/08/07 09:11:51;;;;;;;9.30;4.38;;;26.80;96.10;;;;;;5009437;28;20127;-67
2021/08/07 09:14:19;;;;;;;6.10;3.63;;;26.90;96.20;;;;;;5008988;28;20034;-67
2021/08/07 09:16:59;;;;;;;6.75;3.78;;;26.90;95.60;;;;;;5021956;28;20163;-67
2021/08/07 09:19:26;;;;;;;6.53;3.35;;;27.10;95.80;;;;;;5025819;28;20511;-67
2021/08/07 09:22:08;;;;;;;9.68;4.13;;;26.90;95.90;;;;;;5029836;28;20479;-66
2021/08/07 09:24:52;;;;;;;12.25;3.80;;;26.90;96.70;;;;;;5017816;28;20079;-67
2021/08/07 09:27:33;;;;;;;8.18;3.60;;;26.90;96.10;;;;;;4997360;28;20111;-67
2021/08/07 09:30:00;;;;;;;7.40;4.00;;;27.00;96.40;;;;;;4978288;28;20487;-67
2021/08/07 09:32:26;;;;;;;8.65;3.50;;;27.20;96.00;;;;;;5013266;28;20080;-66
2021/08/07 09:35:08;;;;;;;9.02;3.83;;;27.20;95.60;;;;;;5008470;28;20501;-66
2021/08/07 09:37:34;;;;;;;6.07;3.33;;;27.30;95.20;;;;;;5027049;28;20030;-67
2021/08/07 09:40:01;;;;;;;6.97;4.15;;;27.30;95.40;;;;;;5022210;28;20087;-66
2021/08/07 09:42:28;;;;;;;7.20;3.67;;;27.30;95.00;;;;;;5028154;28;20450;-67
2021/08/07 09:45:24;;;;;;;6.40;3.78;;;27.30;95.00;;;;;;5025366;28;20037;-66
2021/08/07 09:47:58;;;;;;;6.78;3.90;;;27.50;95.20;;;;;;5003335;28;20087;-67
2021/08/07 09:50:26;;;;;;;7.22;4.20;;;27.60;94.50;;;;;;5014483;28;20033;-66
2021/08/07 09:52:52;;;;;;;8.75;3.90;;;27.60;93.80;;;;;;5014915;28;20037;-66
2021/08/07 09:55:18;;;;;;;10.15;4.13;;;27.60;93.90;;;;;;5025586;28;20119;-67
2021/08/07 09:57:43;;;;;;;6.90;3.67;;;27.70;93.90;;;;;;5013683;28;20037;-68
2021/08/07 10:00:10;;;;;;;6.25;4.07;;;27.80;93.80;;;;;;5022485;28;20045;-67
2021/08/07 10:02:37;;;;;;;10.43;4.72;;;27.80;93.60;;;;;;5027725;28;20128;-67
2021/08/07 10:05:08;;;;;;;8.65;3.85;;;27.90;93.90;;;;;;5029565;28;20116;-66
2021/08/07 10:07:34;;;;;;;8.73;3.75;;;27.90;93.30;;;;;;5020865;28;20124;-66
2021/08/07 10:10:00;;;;;;;6.78;4.30;;;27.80;93.60;;;;;;5020455;28;20049;-67
2021/08/07 10:12:26;;;;;;;8.43;4.05;;;27.90;92.80;;;;;;5018844;28;20388;-67
2021/08/07 10:14:52;;;;;;;5.88;3.80;;;28.00;92.50;;;;;;5042693;28;20040;-64
2021/08/07 10:17:23;;;;;;;8.15;4.05;;;28.00;92.70;;;;;;4991029;28;20041;-67
2021/08/07 10:19:50;;;;;;;6.90;3.97;;;28.10;92.70;;;;;;5007919;28;20045;-67
2021/08/07 10:22:19;;;;;;;5.43;4.25;;;28.10;92.10;;;;;;5001724;28;20088;-67
2021/08/07 10:24:46;;;;;;;7.30;3.90;;;28.20;91.70;;;;;;5024943;28;20122;-67
2021/08/07 10:27:13;;;;;;;10.20;5.00;;;28.30;91.40;;;;;;5022797;28;20053;-67
2021/08/07 10:29:39;;;;;;;8.65;4.00;;;28.10;90.40;;;;;;5027251;28;20482;-67
2021/08/07 10:32:07;;;;;;;7.47;3.97;;;28.00;90.80;;;;;;5008903;28;20038;-67
2021/08/07 10:34:36;;;;;;;9.73;4.63;;;28.20;91.00;;;;;;5028095;28;20037;-67
2021/08/07 10:37:03;;;;;;;6.68;4.32;;;28.50;91.10;;;;;;5005621;28;20042;-67
2021/08/07 10:39:30;;;;;;;7.20;4.18;;;28.60;88.40;;;;;;5025577;28;20041;-64
2021/08/07 10:42:01;;;;;;;10.43;4.80;;;28.60;89.10;;;;;;5022830;28;20050;-66
2021/08/07 10:44:27;;;;;;;8.45;4.50;;;28.70;89.50;;;;;;5028623;28;20048;-65
2021/08/07 10:46:55;;;;;;;6.15;4.35;;;28.70;87.50;;;;;;5024163;28;20056;-65
2021/08/07 10:49:33;;;;;;;7.75;4.32;;;28.60;88.30;;;;;;5026604;28;20034;-66
2021/08/07 10:51:59;;;;;;;9.00;4.55;;;28.80;86.60;;;;;;4953444;28;20044;-66
2021/08/07 10:54:28;;;;;;;6.75;3.58;;;29.00;87.10;;;;;;5022031;28;20038;-65
2021/08/07 10:56:54;;;;;;;6.07;3.88;;;29.10;88.40;;;;;;5027129;28;20152;-65
2021/08/07 10:59:23;;;;;;;7.88;4.30;;;29.10;87.90;;;;;;5024869;28;20033;-66
2021/08/07 11:01:51;;;;;;;7.63;4.47;;;29.10;85.00;;;;;;5027116;28;20061;-66
2021/08/07 11:04:23;;;;;;;7.30;4.10;;;29.10;83.80;;;;;;5020189;28;20076;-66
2021/08/07 11:06:52;;;;;;;8.02;4.30;;;29.20;84.50;;;;;;5026939;28;20418;-67
2021/08/07 11:09:29;;;;;;;9.05;4.47;;;29.30;82.70;;;;;;5021898;28;20080;-67
2021/08/07 11:12:06;;;;;;;5.10;4.60;;;29.20;83.40;;;;;;5026844;28;20042;-65
2021/08/07 11:14:33;;;;;;;8.38;4.00;;;29.10;83.30;;;;;;5022347;28;20037;-67
2021/08/07 11:20:05;;;;;;;8.18;4.05;;;28.70;81.10;;;;;;5019614;28;20109;-65
2021/08/07 11:22:35;;;;;;;8.05;3.92;;;28.90;81.90;;;;;;4997995;28;20037;-65
2021/08/07 11:25:19;;;;;;;7.15;3.92;;;28.90;83.30;;;;;;5015363;28;20068;-66
2021/08/07 11:27:52;;;;;;;5.93;3.78;;;28.80;83.70;;;;;;5022718;28;20053;-66
2021/08/07 11:30:26;;;;;;;6.07;3.75;;;28.60;83.60;;;;;;5022190;28;20029;-67
2021/08/07 11:32:58;;;;;;;7.60;3.55;;;28.70;82.90;;;;;;5024642;28;20442;-64
2021/08/07 11:35:33;;;;;;;4.00;3.60;;;28.70;83.10;;;;;;5021723;28;20037;-66
2021/08/07 11:38:12;;;;;;;7.72;3.92;;;28.70;81.60;;;;;;5007085;28;20490;-65
2021/08/07 11:40:50;;;;;;;5.72;3.70;;;28.60;79.20;;;;;;5012717;28;20104;-66
2021/08/07 11:43:18;;;;;;;5.35;3.83;;;28.70;79.50;;;;;;5024068;28;20466;-66
2021/08/07 11:45:45;;;;;;;8.27;3.72;;;29.10;77.40;;;;;;5022201;28;20105;-66
2021/08/07 11:48:20;;;;;;;4.07;2.97;;;29.30;77.70;;;;;;5024123;28;20337;-65
2021/08/07 11:50:46;;;;;;;4.22;3.83;;;29.10;77.20;;;;;;5011298;28;20132;-66
2021/08/07 11:53:16;;;;;;;7.50;3.50;;;29.10;76.00;;;;;;5013255;28;20380;-67
2021/08/07 11:55:42;;;;;;;5.47;3.60;;;29.00;77.00;;;;;;5023722;28;20064;-66
2021/08/07 11:58:12;;;;;;;11.77;4.20;;;29.10;76.80;;;;;;5025925;28;20503;-66
2021/08/07 12:00:39;;;;;;;4.68;3.28;;;28.80;77.00;;;;;;5011888;28;20042;-66
2021/08/07 12:03:12;;;;;;;6.22;3.47;;;28.80;78.40;;;;;;5001873;28;20077;-66
2021/08/07 12:05:57;;;;;;;6.43;3.73;;;28.90;79.60;;;;;;5012235;28;20483;-65
2021/08/07 12:08:31;;;;;;;8.77;4.22;;;29.10;78.90;;;;;;5004611;28;20778;-67
2021/08/07 12:10:59;;;;;;;4.47;2.95;;;29.60;77.00;;;;;;5014520;28;20510;-66
2021/08/07 12:13:28;;;;;;;8.77;3.97;;;29.50;75.40;;;;;;5025623;28;20460;-66
2021/08/07 12:15:56;;;;;;;5.95;3.70;;;29.30;77.10;;;;;;5008350;28;20381;-66
2021/08/07 12:18:22;;;;;;;5.88;3.80;;;29.30;76.80;;;;;;5007653;28;20505;-64
2021/08/07 12:20:48;;;;;;;8.38;3.88;;;29.20;76.70;;;;;;5007943;28;20095;-66
2021/08/07 12:23:14;;;;;;;7.15;3.75;;;29.10;77.60;;;;;;5018273;28;20418;-66
2021/08/07 12:25:43;;;;;;;4.38;3.25;;;28.80;78.60;;;;;;5023663;28;20063;-66
2021/08/07 12:28:15;;;;;;;6.53;3.72;;;28.90;77.80;;;;;;5023229;28;20083;-66
2021/08/07 12:31:02;;;;;;;5.38;3.40;;;28.90;78.80;;;;;;5027832;28;20057;-66
2021/08/07 12:33:30;;;;;;;6.88;4.00;;;29.00;79.20;;;;;;4995999;28;20029;-65
2021/08/07 12:35:56;;;;;;;7.05;4.03;;;28.90;78.20;;;;;;5006959;28;20041;-66
2021/08/07 12:38:24;;;;;;;7.30;4.38;;;29.00;77.70;;;;;;5009888;28;20503;-62
2021/08/07 12:40:55;;;;;;;4.63;3.47;;;29.10;76.90;;;;;;5030619;28;20041;-67
2021/08/07 12:43:21;;;;;;;6.45;4.28;;;29.40;76.30;;;;;;5012955;28;20048;-67
2021/08/07 12:46:01;;;;;;;6.20;3.50;;;29.40;76.10;;;;;;5015914;28;20038;-67
2021/08/07 12:48:45;;;;;;;5.93;3.58;;;29.50;75.90;;;;;;4994671;28;20062;-67
2021/08/07 12:51:12;;;;;;;4.07;3.40;;;29.40;75.30;;;;;;5007133;28;20445;-67